sensor_id;sensor_type;location;lat;lon;timestamp;pressure;altitude;pressure_sealevel;temperature;humidity
20394;BME280;10356;50.544;9.642;2023-03-14T00:00:37;96265.56;;;9.58;100.00
20394;BME280;10356;50.544;9.642;2023-03-14T00:03:04;96266.88;;;9.62;100.00
20394;BME280;10356;50.544;9.642;2023-03-14T00:05:31;96287.38;;;9.65;100.00
20394;BME280;10356;50.544;9.642;2023-03-14T00:07:57;96296.28;;;9.62;100.00
20394;BME280;10356;50.544;9.642;2023-03-14T00:10:26;96321.81;;;9.67;100.00
20394;BME280;10356;50.544;9.642;2023-03-14T00:12:52;96313.19;;;9.74;100.00
20394;BME280;10356;50.544;9.642;2023-03-14T00:15:19;96303.94;;;9.72;100.00
20394;BME280;10356;50.544;9.642;2023-03-14T00:17:46;96314.19;;;9.65;100.00
20394;BME280;10356;50.544;9.642;2023-03-14T00:20:13;96328.63;;;9.68;100.00
20394;BME280;10356;50.544;9.642;2023-03-14T00:22:40;96324.09;;;9.78;100.00
20394;BME280;10356;50.544;9.642;2023-03-14T00:25:09;96318.56;;;9.65;100.00
20394;BME280;10356;50.544;9.642;2023-03-14T00:27:37;96299.38;;;9.66;100.00
20394;BME280;10356;50.544;9.642;2023-03-14T00:30:05;96306.53;;;9.80;100.00
20394;BME280;10356;50.544;9.642;2023-03-14T00:32:33;96310.13;;;9.71;100.00
20394;BME280;10356;50.544;9.642;2023-03-14T00:34:59;96296.78;;;9.66;100.00
20394;BME280;10356;50.544;9.642;2023-03-14T00:37:26;96300.03;;;9.76;100.00
20394;BME280;10356;50.544;9.642;2023-03-14T00:39:53;96305.09;;;9.69;100.00
20394;BME280;10356;50.544;9.642;2023-03-14T00:42:19;96302.31;;;9.71;100.00
20394;BME280;10356;50.544;9.642;2023-03-14T00:44:47;96304.91;;;9.79;100.00
20394;BME280;10356;50.544;9.642;2023-03-14T00:47:14;96292.88;;;9.78;100.00
20394;BME280;10356;50.544;9.642;2023-03-14T00:49:40;96292.56;;;9.89;100.00
20394;BME280;10356;50.544;9.642;2023-03-14T00:52:08;96286.06;;;9.77;100.00
20394;BME280;10356;50.544;9.642;2023-03-14T00:54:35;96293.53;;;9.72;100.00
20394;BME280;10356;50.544;9.642;2023-03-14T00:57:01;96284.44;;;9.76;100.00
20394;BME280;10356;50.544;9.642;2023-03-14T00:59:28;96279.22;;;9.76;100.00
20394;BME280;10356;50.544;9.642;2023-03-14T01:01:56;96278.75;;;9.72;100.00
20394;BME280;10356;50.544;9.642;2023-03-14T01:04:23;96277.78;;;9.81;100.00
20394;BME280;10356;50.544;9.642;2023-03-14T01:06:49;96261.19;;;9.90;100.00
20394;BME280;10356;50.544;9.642;2023-03-14T01:09:16;96255.50;;;9.87;100.00
20394;BME280;10356;50.544;9.642;2023-03-14T01:11:43;96260.72;;;9.87;100.00
20394;BME280;10356;50.544;9.642;2023-03-14T01:14:12;96256.16;;;9.89;100.00
20394;BME280;10356;50.544;9.642;2023-03-14T01:16:38;96270.28;;;9.78;100.00
20394;BME280;10356;50.544;9.642;2023-03-14T01:19:07;96255.34;;;9.88;100.00
20394;BME280;10356;50.544;9.642;2023-03-14T01:21:34;96255.50;;;9.87;100.00
20394;BME280;10356;50.544;9.642;2023-03-14T01:24:02;96242.34;;;9.88;100.00
20394;BME280;10356;50.544;9.642;2023-03-14T01:26:31;96247.53;;;9.88;100.00
20394;BME280;10356;50.544;9.642;2023-03-14T01:28:58;96252.56;;;9.82;100.00
20394;BME280;10356;50.544;9.642;2023-03-14T01:31:25;96243.81;;;9.91;100.00
20394;BME280;10356;50.544;9.642;2023-03-14T01:33:52;96244.47;;;9.85;100.00
20394;BME280;10356;50.544;9.642;2023-03-14T01:36:20;96242.81;;;9.92;100.00
20394;BME280;10356;50.544;9.642;2023-03-14T01:38:47;96247.88;;;9.85;100.00
20394;BME280;10356;50.544;9.642;2023-03-14T01:41:16;96233.41;;;9.83;100.00
20394;BME280;10356;50.544;9.642;2023-03-14T01:43:44;96226.25;;;9.85;100.00
20394;BME280;10356;50.544;9.642;2023-03-14T01:49:04;96221.34;;;9.98;100.00
20394;BME280;10356;50.544;9.642;2023-03-14T01:51:38;96196.66;;;9.86;100.00
20394;BME280;10356;50.544;9.642;2023-03-14T01:54:13;96215.19;;;9.91;100.00
20394;BME280;10356;50.544;9.642;2023-03-14T01:56:42;96212.59;;;9.83;100.00
20394;BME280;10356;50.544;9.642;2023-03-14T01:59:11;96210.66;;;9.85;100.00
20394;BME280;10356;50.544;9.642;2023-03-14T02:01:41;96210.97;;;9.82;100.00
20394;BME280;10356;50.544;9.642;2023-03-14T02:04:09;96218.44;;;9.85;100.00
20394;BME280;10356;50.544;9.642;2023-03-14T02:06:44;96209.66;;;9.78;100.00
20394;BME280;10356;50.544;9.642;2023-03-14T02:09:13;96204.81;;;9.75;100.00
20394;BME280;10356;50.544;9.642;2023-03-14T02:11:40;96197.97;;;9.74;100.00
20394;BME280;10356;50.544;9.642;2023-03-14T02:14:10;96188.22;;;9.68;100.00
20394;BME280;10356;50.544;9.642;2023-03-14T02:16:40;96180.13;;;9.63;100.00
20394;BME280;10356;50.544;9.642;2023-03-14T02:19:07;96180.75;;;9.57;100.00
20394;BME280;10356;50.544;9.642;2023-03-14T02:21:45;96173.28;;;9.62;100.00
20394;BME280;10356;50.544;9.642;2023-03-14T02:24:17;96170.84;;;9.60;100.00
20394;BME280;10356;50.544;9.642;2023-03-14T02:27:03;96171.66;;;9.53;100.00
20394;BME280;10356;50.544;9.642;2023-03-14T02:29:30;96178.81;;;9.59;100.00
20394;BME280;10356;50.544;9.642;2023-03-14T02:31:59;96174.28;;;9.53;100.00
20394;BME280;10356;50.544;9.642;2023-03-14T02:34:26;96169.25;;;9.59;100.00
20394;BME280;10356;50.544;9.642;2023-03-14T02:36:53;96157.38;;;9.49;100.00
20394;BME280;10356;50.544;9.642;2023-03-14T02:39:24;96163.41;;;9.49;100.00
20394;BME280;10356;50.544;9.642;2023-03-14T02:41:52;96140.78;;;9.42;100.00
20394;BME280;10356;50.544;9.642;2023-03-14T02:44:20;96141.44;;;9.36;100.00
20394;BME280;10356;50.544;9.642;2023-03-14T02:46:46;96130.41;;;9.42;100.00
20394;BME280;10356;50.544;9.642;2023-03-14T02:49:14;96147.81;;;9.49;100.00
20394;BME280;10356;50.544;9.642;2023-03-14T02:51:41;96135.94;;;9.47;100.00
20394;BME280;10356;50.544;9.642;2023-03-14T02:54:09;96148.59;;;9.50;100.00
20394;BME280;10356;50.544;9.642;2023-03-14T02:56:36;96149.88;;;9.46;100.00
20394;BME280;10356;50.544;9.642;2023-03-14T02:59:03;96146.66;;;9.36;100.00
20394;BME280;10356;50.544;9.642;2023-03-14T03:01:31;96155.91;;;9.38;100.00
20394;BME280;10356;50.544;9.642;2023-03-14T03:03:59;96148.59;;;9.42;100.00
20394;BME280;10356;50.544;9.642;2023-03-14T03:06:25;96144.03;;;9.44;100.00
20394;BME280;10356;50.544;9.642;2023-03-14T03:08:52;96138.69;;;9.45;100.00
20394;BME280;10356;50.544;9.642;2023-03-14T03:11:19;96142.44;;;9.43;100.00
20394;BME280;10356;50.544;9.642;2023-03-14T03:13:46;96144.88;;;9.44;100.00
20394;BME280;10356;50.544;9.642;2023-03-14T03:16:12;96146.97;;;9.49;100.00
20394;BME280;10356;50.544;9.642;2023-03-14T03:18:41;96145.34;;;9.48;100.00
20394;BME280;10356;50.544;9.642;2023-03-14T03:21:08;96132.03;;;9.51;100.00
20394;BME280;10356;50.544;9.642;2023-03-14T03:23:34;96128.78;;;9.57;100.00
20394;BME280;10356;50.544;9.642;2023-03-14T03:26:01;96125.53;;;9.55;100.00
20394;BME280;10356;50.544;9.642;2023-03-14T03:28:28;96129.09;;;9.54;100.00
20394;BME280;10356;50.544;9.642;2023-03-14T03:30:55;96124.22;;;9.51;100.00
20394;BME280;10356;50.544;9.642;2023-03-14T03:33:22;96127.13;;;9.56;100.00
20394;BME280;10356;50.544;9.642;2023-03-14T03:35:51;96109.94;;;9.55;100.00
20394;BME280;10356;50.544;9.642;2023-03-14T03:38:17;96116.63;;;9.49;100.00
20394;BME280;10356;50.544;9.642;2023-03-14T03:40:45;96136.59;;;9.49;100.00
20394;BME280;10356;50.544;9.642;2023-03-14T03:43:11;96126.66;;;9.52;100.00
20394;BME280;10356;50.544;9.642;2023-03-14T03:45:38;96136.59;;;9.49;100.00
20394;BME280;10356;50.544;9.642;2023-03-14T03:48:05;96133.63;;;9.52;100.00
20394;BME280;10356;50.544;9.642;2023-03-14T03:50:32;96127.78;;;9.50;100.00
20394;BME280;10356;50.544;9.642;2023-03-14T03:53:00;96123.91;;;9.46;100.00
20394;BME280;10356;50.544;9.642;2023-03-14T03:55:27;96136.09;;;9.45;100.00
20394;BME280;10356;50.544;9.642;2023-03-14T03:57:54;96140.78;;;9.50;100.00
20394;BME280;10356;50.544;9.642;2023-03-14T04:00:21;96147.81;;;9.49;100.00
20394;BME280;10356;50.544;9.642;2023-03-14T04:02:47;96156.72;;;9.55;100.00
20394;BME280;10356;50.544;9.642;2023-03-14T04:05:14;96158.34;;;9.56;100.00
20394;BME280;10356;50.544;9.642;2023-03-14T04:07:40;96145.00;;;9.67;100.00
20394;BME280;10356;50.544;9.642;2023-03-14T04:10:09;96146.31;;;9.71;100.00
20394;BME280;10356;50.544;9.642;2023-03-14T04:12:36;96125.03;;;9.67;99.14
20394;BME280;10356;50.544;9.642;2023-03-14T04:15:03;96135.25;;;9.77;98.72
20394;BME280;10356;50.544;9.642;2023-03-14T04:17:29;96139.16;;;9.73;98.57
20394;BME280;10356;50.544;9.642;2023-03-14T04:19:56;96132.28;;;9.80;97.67
20394;BME280;10356;50.544;9.642;2023-03-14T04:22:22;96129.06;;;9.70;98.87
20394;BME280;10356;50.544;9.642;2023-03-14T04:24:49;96140.44;;;9.77;98.44
20394;BME280;10356;50.544;9.642;2023-03-14T04:27:17;96126.16;;;9.65;99.14
20394;BME280;10356;50.544;9.642;2023-03-14T04:29:43;96140.00;;;9.65;99.16
20394;BME280;10356;50.544;9.642;2023-03-14T04:32:10;96125.53;;;9.63;99.44
20394;BME280;10356;50.544;9.642;2023-03-14T04:34:37;96132.19;;;9.65;98.86
20394;BME280;10356;50.544;9.642;2023-03-14T04:37:03;96134.78;;;9.57;99.28
20394;BME280;10356;50.544;9.642;2023-03-14T04:39:30;96133.63;;;9.68;98.82
20394;BME280;10356;50.544;9.642;2023-03-14T04:41:56;96125.69;;;9.69;97.97
20394;BME280;10356;50.544;9.642;2023-03-14T04:44:24;96116.41;;;9.75;97.45
20394;BME280;10356;50.544;9.642;2023-03-14T04:46:51;96114.44;;;9.77;97.21
20394;BME280;10356;50.544;9.642;2023-03-14T04:49:17;96118.53;;;9.71;97.52
20394;BME280;10356;50.544;9.642;2023-03-14T04:51:44;96119.00;;;9.75;98.06
20394;BME280;10356;50.544;9.642;2023-03-14T04:54:10;96122.09;;;9.62;98.76
20394;BME280;10356;50.544;9.642;2023-03-14T04:56:37;96118.38;;;9.57;99.12
20394;BME280;10356;50.544;9.642;2023-03-14T04:59:04;96130.06;;;9.69;98.88
20394;BME280;10356;50.544;9.642;2023-03-14T05:01:32;96119.03;;;9.59;99.80
20394;BME280;10356;50.544;9.642;2023-03-14T05:03:58;96113.50;;;9.54;99.95
20394;BME280;10356;50.544;9.642;2023-03-14T05:06:24;96119.31;;;9.64;99.82
20394;BME280;10356;50.544;9.642;2023-03-14T05:08:51;96117.56;;;9.56;100.00
20394;BME280;10356;50.544;9.642;2023-03-14T05:11:18;96108.28;;;9.62;99.55
20394;BME280;10356;50.544;9.642;2023-03-14T05:13:44;96099.19;;;9.58;100.00
20394;BME280;10356;50.544;9.642;2023-03-14T05:16:11;96092.53;;;9.63;99.34
20394;BME280;10356;50.544;9.642;2023-03-14T05:18:39;96094.63;;;9.60;99.68
20394;BME280;10356;50.544;9.642;2023-03-14T05:21:06;96090.09;;;9.62;99.69
20394;BME280;10356;50.544;9.642;2023-03-14T05:23:32;96098.03;;;9.68;99.38
20394;BME280;10356;50.544;9.642;2023-03-14T05:25:59;96092.03;;;9.60;100.00
20394;BME280;10356;50.544;9.642;2023-03-14T05:28:25;96095.94;;;9.56;100.00
20394;BME280;10356;50.544;9.642;2023-03-14T05:30:53;96092.06;;;9.44;100.00
20394;BME280;10356;50.544;9.642;2023-03-14T05:33:19;96103.09;;;9.54;100.00
20394;BME280;10356;50.544;9.642;2023-03-14T05:35:47;96107.16;;;9.48;100.00
20394;BME280;10356;50.544;9.642;2023-03-14T05:38:13;96112.88;;;9.36;100.00
20394;BME280;10356;50.544;9.642;2023-03-14T05:40:40;96106.38;;;9.40;100.00
20394;BME280;10356;50.544;9.642;2023-03-14T05:43:06;96091.13;;;9.37;100.00
20394;BME280;10356;50.544;9.642;2023-03-14T05:45:34;96085.91;;;9.37;100.00
20394;BME280;10356;50.544;9.642;2023-03-14T05:48:02;96078.78;;;9.30;100.00
20394;BME280;10356;50.544;9.642;2023-03-14T05:50:29;96073.41;;;9.24;100.00
20394;BME280;10356;50.544;9.642;2023-03-14T05:52:57;96064.50;;;9.18;100.00
20394;BME280;10356;50.544;9.642;2023-03-14T05:55:23;96060.25;;;9.17;100.00
20394;BME280;10356;50.544;9.642;2023-03-14T05:57:50;96063.19;;;9.14;100.00
20394;BME280;10356;50.544;9.642;2023-03-14T06:00:17;96061.25;;;9.16;100.00
20394;BME280;10356;50.544;9.642;2023-03-14T06:02:44;96050.22;;;9.14;100.00
20394;BME280;10356;50.544;9.642;2023-03-14T06:05:10;96042.41;;;9.14;100.00
20394;BME280;10356;50.544;9.642;2023-03-14T06:07:37;96041.59;;;9.22;100.00
20394;BME280;10356;50.544;9.642;2023-03-14T06:10:06;96041.94;;;9.19;100.00
20394;BME280;10356;50.544;9.642;2023-03-14T06:12:33;96036.22;;;9.23;100.00
20394;BME280;10356;50.544;9.642;2023-03-14T06:15:00;96032.00;;;9.30;100.00
20394;BME280;10356;50.544;9.642;2023-03-14T06:17:26;96039.47;;;9.33;100.00
20394;BME280;10356;50.544;9.642;2023-03-14T06:19:53;96029.22;;;9.32;100.00
20394;BME280;10356;50.544;9.642;2023-03-14T06:22:19;96039.78;;;9.39;100.00
20394;BME280;10356;50.544;9.642;2023-03-14T06:24:46;96028.75;;;9.37;100.00
20394;BME280;10356;50.544;9.642;2023-03-14T06:27:14;96017.38;;;9.29;100.00
20394;BME280;10356;50.544;9.642;2023-03-14T06:29:40;96017.72;;;9.26;100.00
20394;BME280;10356;50.544;9.642;2023-03-14T06:32:07;96017.38;;;9.29;100.00
20394;BME280;10356;50.544;9.642;2023-03-14T06:34:34;96023.56;;;9.28;100.00
20394;BME280;10356;50.544;9.642;2023-03-14T06:37:00;96031.00;;;9.31;100.00
20394;BME280;10356;50.544;9.642;2023-03-14T06:39:27;96025.81;;;9.31;100.00
20394;BME280;10356;50.544;9.642;2023-03-14T06:41:54;96033.59;;;9.40;100.00
20394;BME280;10356;50.544;9.642;2023-03-14T06:44:21;96038.31;;;9.36;100.00
20394;BME280;10356;50.544;9.642;2023-03-14T06:46:48;96035.88;;;9.43;100.00
20394;BME280;10356;50.544;9.642;2023-03-14T06:49:14;96047.88;;;9.44;100.00
20394;BME280;10356;50.544;9.642;2023-03-14T06:51:41;96038.28;;;9.52;100.00
20394;BME280;10356;50.544;9.642;2023-03-14T06:54:07;96036.00;;;9.57;100.00
20394;BME280;10356;50.544;9.642;2023-03-14T06:56:34;96052.09;;;9.61;99.72
20394;BME280;10356;50.544;9.642;2023-03-14T06:59:00;96056.63;;;9.67;99.98
20394;BME280;10356;50.544;9.642;2023-03-14T07:01:29;96066.84;;;9.68;99.42
20394;BME280;10356;50.544;9.642;2023-03-14T07:03:57;96055.97;;;9.65;100.00
20394;BME280;10356;50.544;9.642;2023-03-14T07:06:24;96051.72;;;9.72;99.69
20394;BME280;10356;50.544;9.642;2023-03-14T07:08:51;96063.75;;;9.73;100.00
20394;BME280;10356;50.544;9.642;2023-03-14T07:11:17;96053.03;;;9.68;100.00
20394;BME280;10356;50.544;9.642;2023-03-14T07:13:44;96062.13;;;9.64;100.00
20394;BME280;10356;50.544;9.642;2023-03-14T07:16:13;96057.94;;;9.55;100.00
20394;BME280;10356;50.544;9.642;2023-03-14T07:18:41;96053.72;;;9.54;100.00
20394;BME280;10356;50.544;9.642;2023-03-14T07:21:08;96065.25;;;9.67;100.00
20394;BME280;10356;50.544;9.642;2023-03-14T07:23:35;96057.56;;;9.74;100.00
20394;BME280;10356;50.544;9.642;2023-03-14T07:26:01;96062.13;;;9.72;100.00
20394;BME280;10356;50.544;9.642;2023-03-14T07:28:28;96064.41;;;9.67;100.00
20394;BME280;10356;50.544;9.642;2023-03-14T07:30:55;96063.44;;;9.60;100.00
20394;BME280;10356;50.544;9.642;2023-03-14T07:33:21;96066.69;;;9.54;100.00
20394;BME280;10356;50.544;9.642;2023-03-14T07:35:50;96063.13;;;9.63;100.00
20394;BME280;10356;50.544;9.642;2023-03-14T07:38:16;96060.84;;;9.60;100.00
20394;BME280;10356;50.544;9.642;2023-03-14T07:40:43;96054.50;;;9.62;100.00
20394;BME280;10356;50.544;9.642;2023-03-14T07:43:10;96049.28;;;9.70;100.00
20394;BME280;10356;50.544;9.642;2023-03-14T07:45:36;96059.53;;;9.64;100.00
20394;BME280;10356;50.544;9.642;2023-03-14T07:48:03;96054.03;;;9.59;100.00
20394;BME280;10356;50.544;9.642;2023-03-14T07:50:29;96042.16;;;9.64;100.00
20394;BME280;10356;50.544;9.642;2023-03-14T07:52:57;96050.06;;;9.79;100.00
20394;BME280;10356;50.544;9.642;2023-03-14T07:55:24;96052.84;;;9.77;100.00
20394;BME280;10356;50.544;9.642;2023-03-14T07:57:50;96046.47;;;9.80;100.00
20394;BME280;10356;50.544;9.642;2023-03-14T08:00:18;96050.91;;;9.79;100.00
20394;BME280;10356;50.544;9.642;2023-03-14T08:02:44;96053.63;;;9.78;100.00
20394;BME280;10356;50.544;9.642;2023-03-14T08:05:11;96063.72;;;9.81;100.00
20394;BME280;10356;50.544;9.642;2023-03-14T08:07:37;96060.94;;;9.82;100.00
20394;BME280;10356;50.544;9.642;2023-03-14T08:10:06;96074.13;;;9.81;100.00
20394;BME280;10356;50.544;9.642;2023-03-14T08:12:33;96068.44;;;9.85;100.00
20394;BME280;10356;50.544;9.642;2023-03-14T08:15:03;96066.91;;;9.99;100.00
20394;BME280;10356;50.544;9.642;2023-03-14T08:17:30;96065.88;;;10.08;100.00
20394;BME280;10356;50.544;9.642;2023-03-14T08:19:56;96067.06;;;10.05;100.00
20394;BME280;10356;50.544;9.642;2023-03-14T08:22:23;96067.53;;;10.17;100.00
20394;BME280;10356;50.544;9.642;2023-03-14T08:24:49;96061.66;;;10.15;100.00
20394;BME280;10356;50.544;9.642;2023-03-14T08:27:18;96066.69;;;10.08;100.00
20394;BME280;10356;50.544;9.642;2023-03-14T08:29:44;96070.78;;;10.11;100.00
20394;BME280;10356;50.544;9.642;2023-03-14T08:32:11;96060.84;;;10.14;100.00
20394;BME280;10356;50.544;9.642;2023-03-14T08:34:37;96064.91;;;10.17;100.00
20394;BME280;10356;50.544;9.642;2023-03-14T08:37:05;96066.88;;;10.15;100.00
20394;BME280;10356;50.544;9.642;2023-03-14T08:39:31;96062.00;;;10.12;100.00
20394;BME280;10356;50.544;9.642;2023-03-14T08:41:58;96066.56;;;10.02;100.00
20394;BME280;10356;50.544;9.642;2023-03-14T08:44:25;96064.59;;;10.04;100.00
20394;BME280;10356;50.544;9.642;2023-03-14T08:46:52;96068.34;;;10.09;100.00
20394;BME280;10356;50.544;9.642;2023-03-14T08:49:18;96068.84;;;10.13;100.00
20394;BME280;10356;50.544;9.642;2023-03-14T08:51:45;96063.97;;;10.02;100.00
20394;BME280;10356;50.544;9.642;2023-03-14T08:54:15;96060.88;;;9.98;100.00
20394;BME280;10356;50.544;9.642;2023-03-14T08:56:41;96063.00;;;10.03;100.00
20394;BME280;10356;50.544;9.642;2023-03-14T08:59:08;96065.25;;;10.14;100.00
20394;BME280;10356;50.544;9.642;2023-03-14T09:01:37;96063.63;;;10.13;100.00
20394;BME280;10356;50.544;9.642;2023-03-14T09:04:04;96071.44;;;10.05;100.00
20394;BME280;10356;50.544;9.642;2023-03-14T09:06:30;96063.94;;;10.10;100.00
20394;BME280;10356;50.544;9.642;2023-03-14T09:08:57;96066.09;;;9.98;100.00
20394;BME280;10356;50.544;9.642;2023-03-14T09:11:23;96067.59;;;9.93;100.00
20394;BME280;10356;50.544;9.642;2023-03-14T09:13:50;96072.44;;;9.96;100.00
20394;BME280;10356;50.544;9.642;2023-03-14T09:16:16;96076.34;;;9.92;100.00
20394;BME280;10356;50.544;9.642;2023-03-14T09:18:44;96074.72;;;9.99;100.00
20394;BME280;10356;50.544;9.642;2023-03-14T09:21:11;96072.78;;;9.93;100.00
20394;BME280;10356;50.544;9.642;2023-03-14T09:23:38;96075.84;;;9.96;100.00
20394;BME280;10356;50.544;9.642;2023-03-14T09:26:06;96078.94;;;9.92;100.00
20394;BME280;10356;50.544;9.642;2023-03-14T09:28:32;96074.75;;;9.91;100.00
20394;BME280;10356;50.544;9.642;2023-03-14T09:31:05;96077.03;;;9.86;100.00
20394;BME280;10356;50.544;9.642;2023-03-14T09:33:33;96076.69;;;9.89;100.00
20394;BME280;10356;50.544;9.642;2023-03-14T09:36:01;96081.22;;;9.95;100.00
20394;BME280;10356;50.544;9.642;2023-03-14T09:38:27;96080.88;;;9.98;100.00
20394;BME280;10356;50.544;9.642;2023-03-14T09:40:55;96079.31;;;9.89;100.00
20394;BME280;10356;50.544;9.642;2023-03-14T09:43:24;96083.00;;;9.94;100.00
20394;BME280;10356;50.544;9.642;2023-03-14T09:45:52;96074.06;;;9.97;100.00
20394;BME280;10356;50.544;9.642;2023-03-14T09:48:21;96075.72;;;9.90;100.00
20394;BME280;10356;50.544;9.642;2023-03-14T09:50:52;96082.84;;;9.96;100.00
20394;BME280;10356;50.544;9.642;2023-03-14T09:53:24;96078.13;;;9.99;100.00
20394;BME280;10356;50.544;9.642;2023-03-14T09:55:53;96083.81;;;10.03;100.00
20394;BME280;10356;50.544;9.642;2023-03-14T09:58:23;96082.69;;;9.97;100.00
20394;BME280;10356;50.544;9.642;2023-03-14T10:00:52;96075.00;;;10.04;100.00
20394;BME280;10356;50.544;9.642;2023-03-14T10:03:24;96085.09;;;10.07;100.00
20394;BME280;10356;50.544;9.642;2023-03-14T10:05:51;96075.59;;;10.22;100.00
20394;BME280;10356;50.544;9.642;2023-03-14T10:08:18;96089.56;;;10.29;100.00
20394;BME280;10356;50.544;9.642;2023-03-14T10:10:49;96079.72;;;10.47;100.00
20394;BME280;10356;50.544;9.642;2023-03-14T10:13:17;96081.53;;;10.69;100.00
20394;BME280;10356;50.544;9.642;2023-03-14T10:15:48;96087.69;;;10.76;100.00
20394;BME280;10356;50.544;9.642;2023-03-14T10:18:15;96082.25;;;10.86;100.00
20394;BME280;10356;50.544;9.642;2023-03-14T10:20:43;96080.34;;;11.03;100.00
20394;BME280;10356;50.544;9.642;2023-03-14T10:23:23;96081.09;;;10.88;100.00
20394;BME280;10356;50.544;9.642;2023-03-14T10:26:03;96091.47;;;10.96;100.00
20394;BME280;10356;50.544;9.642;2023-03-14T10:28:33;96088.50;;;10.99;100.00
20394;BME280;10356;50.544;9.642;2023-03-14T10:31:00;96087.09;;;11.12;100.00
20394;BME280;10356;50.544;9.642;2023-03-14T10:33:29;96083.72;;;11.26;100.00
20394;BME280;10356;50.544;9.642;2023-03-14T10:35:58;96075.84;;;11.34;100.00
20394;BME280;10356;50.544;9.642;2023-03-14T10:38:27;96085.03;;;11.44;99.97
20394;BME280;10356;50.544;9.642;2023-03-14T10:40:55;96083.09;;;11.61;100.00
20394;BME280;10356;50.544;9.642;2023-03-14T10:43:26;96082.28;;;11.60;99.64
20394;BME280;10356;50.544;9.642;2023-03-14T10:45:55;96082.00;;;11.55;98.86
20394;BME280;10356;50.544;9.642;2023-03-14T10:48:28;96077.34;;;11.51;98.81
20394;BME280;10356;50.544;9.642;2023-03-14T10:50:57;96083.47;;;11.35;100.00
20394;BME280;10356;50.544;9.642;2023-03-14T10:53:24;96081.88;;;11.34;100.00
20394;BME280;10356;50.544;9.642;2023-03-14T10:55:51;96077.00;;;11.31;100.00
20394;BME280;10356;50.544;9.642;2023-03-14T10:58:23;96073.97;;;11.42;100.00
20394;BME280;10356;50.544;9.642;2023-03-14T11:01:00;96074.91;;;11.64;100.00
20394;BME280;10356;50.544;9.642;2023-03-14T11:03:29;96072.28;;;11.64;100.00
20394;BME280;10356;50.544;9.642;2023-03-14T11:05:59;96063.53;;;11.94;100.00
20394;BME280;10356;50.544;9.642;2023-03-14T11:08:35;96063.50;;;12.23;99.01
20394;BME280;10356;50.544;9.642;2023-03-14T11:11:12;96065.94;;;12.25;100.00
20394;BME280;10356;50.544;9.642;2023-03-14T11:13:45;96060.50;;;12.41;99.28
20394;BME280;10356;50.544;9.642;2023-03-14T11:16:22;96065.75;;;12.26;97.85
20394;BME280;10356;50.544;9.642;2023-03-14T11:19:13;96069.25;;;12.33;100.00
20394;BME280;10356;50.544;9.642;2023-03-14T11:21:47;96076.34;;;12.39;100.00
20394;BME280;10356;50.544;9.642;2023-03-14T11:24:41;96068.00;;;12.15;99.84
20394;BME280;10356;50.544;9.642;2023-03-14T11:27:16;96066.75;;;12.25;100.00
20394;BME280;10356;50.544;9.642;2023-03-14T11:29:53;96065.00;;;12.32;100.00
20394;BME280;10356;50.544;9.642;2023-03-14T11:32:34;96057.03;;;12.19;98.85
20394;BME280;10356;50.544;9.642;2023-03-14T11:35:07;96067.00;;;12.30;99.77
20394;BME280;10356;50.544;9.642;2023-03-14T11:37:44;96050.44;;;12.38;99.41
20394;BME280;10356;50.544;9.642;2023-03-14T11:40:14;96049.19;;;12.34;97.25
20394;BME280;10356;50.544;9.642;2023-03-14T11:42:44;96058.81;;;12.33;95.58
20394;BME280;10356;50.544;9.642;2023-03-14T11:45:16;96055.81;;;12.36;96.41
20394;BME280;10356;50.544;9.642;2023-03-14T11:47:51;96055.16;;;12.49;96.91
20394;BME280;10356;50.544;9.642;2023-03-14T11:50:23;96046.47;;;12.63;97.61
20394;BME280;10356;50.544;9.642;2023-03-14T11:52:54;96057.75;;;12.85;96.52
20394;BME280;10356;50.544;9.642;2023-03-14T11:55:26;96052.16;;;12.88;96.15
20394;BME280;10356;50.544;9.642;2023-03-14T11:58:00;96042.13;;;12.91;94.62
20394;BME280;10356;50.544;9.642;2023-03-14T12:00:28;96047.56;;;12.90;95.04
20394;BME280;10356;50.544;9.642;2023-03-14T12:03:02;96051.19;;;13.10;96.68
20394;BME280;10356;50.544;9.642;2023-03-14T12:05:44;96051.19;;;13.10;94.98
20394;BME280;10356;50.544;9.642;2023-03-14T12:08:36;96051.41;;;12.94;93.74
20394;BME280;10356;50.544;9.642;2023-03-14T12:11:10;96046.44;;;12.78;95.38
20394;BME280;10356;50.544;9.642;2023-03-14T12:13:39;96056.34;;;12.46;97.05
20394;BME280;10356;50.544;9.642;2023-03-14T12:16:09;96048.72;;;12.30;97.72
20394;BME280;10356;50.544;9.642;2023-03-14T12:18:47;96057.03;;;12.19;98.69
20394;BME280;10356;50.544;9.642;2023-03-14T12:21:14;96054.53;;;12.11;99.23
20394;BME280;10356;50.544;9.642;2023-03-14T12:23:42;96051.72;;;11.98;99.56
20394;BME280;10356;50.544;9.642;2023-03-14T12:26:19;96046.06;;;11.80;100.00
20394;BME280;10356;50.544;9.642;2023-03-14T12:28:49;96054.09;;;11.78;100.00
20394;BME280;10356;50.544;9.642;2023-03-14T12:31:36;96055.53;;;11.81;100.00
20394;BME280;10356;50.544;9.642;2023-03-14T12:34:29;96055.75;;;11.57;100.00
20394;BME280;10356;50.544;9.642;2023-03-14T12:37:04;96058.78;;;11.46;100.00
20394;BME280;10356;50.544;9.642;2023-03-14T12:39:39;96061.03;;;11.34;100.00
20394;BME280;10356;50.544;9.642;2023-03-14T12:42:12;96051.78;;;11.09;100.00
20394;BME280;10356;50.544;9.642;2023-03-14T12:44:42;96058.44;;;11.12;100.00
20394;BME280;10356;50.544;9.642;2023-03-14T12:50:31;96059.16;;;11.06;100.00
20394;BME280;10356;50.544;9.642;2023-03-14T12:53:23;96073.22;;;10.96;100.00
20394;BME280;10356;50.544;9.642;2023-03-14T12:56:02;96110.09;;;10.85;100.00
20394;BME280;10356;50.544;9.642;2023-03-14T12:58:35;96170.41;;;10.74;100.00
20394;BME280;10356;50.544;9.642;2023-03-14T13:01:05;96146.28;;;9.79;95.60
20394;BME280;10356;50.544;9.642;2023-03-14T13:03:39;96148.13;;;9.30;99.59
20394;BME280;10356;50.544;9.642;2023-03-14T13:06:12;96152.34;;;9.31;100.00
20394;BME280;10356;50.544;9.642;2023-03-14T13:08:42;96166.47;;;9.28;100.00
20394;BME280;10356;50.544;9.642;2023-03-14T13:11:12;96167.78;;;9.32;100.00
20394;BME280;10356;50.544;9.642;2023-03-14T13:13:42;96180.41;;;9.27;98.92